Time;durP1;ratioP1;P1;durP2;ratioP2;P2;SDS_P1;SDS_P2;PMS_P1;PMS_P2;Temp;Humidity;BMP_temperature;BMP_pressure;BME280_temperature;BME280_humidity;BME280_pressure;Samples;Min_cycle;Max_cycle;Signal;HPM_P1;HPM_P2
2022/06/20 00:00:58;;;;;;;;;;;;;;;23.09;47.71;97599.33;1730335;82;20251;-87
2022/06/20 00:03:25;;;;;;;;;;;;;;;23.09;47.73;97600.15;1733642;82;24593;-88
2022/06/20 00:05:52;;;;;;;;;;;;;;;23.11;47.68;97595.95;1733282;81;22952;-87
2022/06/20 00:08:18;;;;;;;;;;;;;;;23.16;47.70;97592.14;1731932;82;26017;-87
2022/06/20 00:10:45;;;;;;;;;;;;;;;23.17;47.72;97593.80;1731982;82;24437;-87
2022/06/20 00:13:13;;;;;;;;;;;;;;;23.18;47.67;97594.93;1732406;81;20279;-84
2022/06/20 00:15:39;;;;;;;;;;;;;;;23.18;47.62;97597.59;1730923;82;24675;-84
2022/06/20 00:18:06;;;;;;;;;;;;;;;23.21;47.63;97596.34;1733900;81;21966;-84
2022/06/20 00:20:32;;;;;;;;;;;;;;;23.22;47.58;97602.82;1733865;82;25963;-87
2022/06/20 00:22:58;;;;;;;;;;;;;;;23.21;47.49;97591.83;1734566;82;20271;-82
2022/06/20 00:25:24;;;;;;;;;;;;;;;23.22;47.51;97586.80;1732997;82;20219;-86
2022/06/20 00:27:51;;;;;;;;;;;;;;;23.21;47.49;97595.01;1734884;81;24575;-84
2022/06/20 00:30:18;;;;;;;;;;;;;;;23.19;47.52;97584.53;1733562;82;21957;-82
2022/06/20 00:32:44;;;;;;;;;;;;;;;23.17;47.51;97587.12;1735005;82;26121;-83
2022/06/20 00:35:10;;;;;;;;;;;;;;;23.16;47.61;97582.80;1733582;81;20289;-83
2022/06/20 00:37:37;;;;;;;;;;;;;;;23.17;47.56;97579.93;1719804;82;20529;-83
2022/06/20 00:40:05;;;;;;;;;;;;;;;23.19;47.49;97579.19;1701829;83;24531;-83
2022/06/20 00:42:30;;;;;;;;;;;;;;;23.19;47.50;97578.37;1699755;84;22152;-83
2022/06/20 00:44:58;;;;;;;;;;;;;;;23.17;47.45;97579.93;1702942;84;21643;-88
2022/06/20 00:47:26;;;;;;;;;;;;;;;23.19;47.40;97582.38;1701051;82;25218;-83
2022/06/20 00:49:56;;;;;;;;;;;;;;;23.16;47.40;97579.63;1703764;84;20266;-84
2022/06/20 00:52:24;;;;;;;;;;;;;;;23.16;47.40;97579.63;1700348;82;24599;-83
2022/06/20 00:54:51;;;;;;;;;;;;;;;23.16;47.44;97590.30;1699841;82;22551;-83
2022/06/20 00:57:22;;;;;;;;;;;;;;;23.16;47.43;97590.81;1699281;82;26041;-83
2022/06/20 01:00:03;;;;;;;;;;;;;;;23.20;47.45;97592.85;1700413;83;24533;-88
2022/06/20 01:02:32;;;;;;;;;;;;;;;23.20;47.43;97597.37;1699522;82;20268;-85
2022/06/20 01:05:02;;;;;;;;;;;;;;;23.16;47.49;97608.98;1701963;83;24625;-88
2022/06/20 01:07:32;;;;;;;;;;;;;;;23.17;47.51;97619.16;1701117;83;22046;-87
2022/06/20 01:09:59;;;;;;;;;;;;;;;23.21;47.56;97622.53;1700525;84;25973;-87
2022/06/20 01:12:26;;;;;;;;;;;;;;;23.25;47.65;97621.08;1705496;82;24168;-84
2022/06/20 01:14:54;;;;;;;;;;;;;;;23.28;47.74;97619.35;1700330;82;20313;-87
2022/06/20 01:17:35;;;;;;;;;;;;;;;23.29;47.77;97618.84;1703608;84;24559;-88
2022/06/20 01:20:03;;;;;;;;;;;;;;;23.29;47.88;97620.97;1699636;82;22212;-83
2022/06/20 01:22:32;;;;;;;;;;;;;;;23.28;47.96;97622.02;1700731;83;21310;-83
2022/06/20 01:25:07;;;;;;;;;;;;;;;23.24;48.08;97631.45;1704066;82;25165;-83
2022/06/20 01:27:39;;;;;;;;;;;;;;;23.14;48.12;97638.23;1699365;83;20334;-88
2022/06/20 01:30:05;;;;;;;;;;;;;;;23.02;48.27;97638.02;1703201;82;25401;-87
2022/06/20 01:32:31;;;;;;;;;;;;;;;22.73;48.33;97627.76;1703714;82;22005;-87
2022/06/20 01:35:01;;;;;;;;;;;;;;;22.50;48.48;97618.25;1701208;82;21105;-82
2022/06/20 01:37:29;;;;;;;;;;;;;;;22.45;48.79;97618.55;1705484;82;24405;-86
2022/06/20 01:39:59;;;;;;;;;;;;;;;22.29;49.05;97621.08;1701892;82;20228;-86
2022/06/20 01:42:26;;;;;;;;;;;;;;;22.15;49.26;97617.24;1702065;83;24556;-82
2022/06/20 01:45:03;;;;;;;;;;;;;;;21.97;49.59;97613.28;1702746;82;22018;-82
2022/06/20 01:47:30;;;;;;;;;;;;;;;22.03;50.02;97607.16;1702374;82;25972;-82
2022/06/20 01:49:57;;;;;;;;;;;;;;;21.94;50.32;97609.66;1702109;82;24440;-83
2022/06/20 01:52:25;;;;;;;;;;;;;;;21.81;50.53;97613.59;1701347;82;20261;-83
2022/06/20 01:54:53;;;;;;;;;;;;;;;21.90;50.92;97609.73;1703482;82;24716;-83
2022/06/20 01:57:19;;;;;;;;;;;;;;;21.79;51.20;97606.30;1701569;82;22075;-83
2022/06/20 01:59:47;;;;;;;;;;;;;;;21.70;51.46;97608.31;1703312;83;26144;-83
2022/06/20 02:02:15;;;;;;;;;;;;;;;21.79;51.83;97602.30;1701954;82;20188;-83
2022/06/20 02:04:44;;;;;;;;;;;;;;;21.89;52.20;97603.25;1703954;82;20333;-83
2022/06/20 02:07:12;;;;;;;;;;;;;;;21.75;52.51;97602.39;1700633;82;24556;-82
2022/06/20 02:09:40;;;;;;;;;;;;;;;21.62;52.78;97603.64;1702298;82;22073;-86
2022/06/20 02:12:07;;;;;;;;;;;;;;;21.69;53.18;97604.51;1702742;82;26813;-87
2022/06/20 02:14:38;;;;;;;;;;;;;;;21.75;53.38;97596.23;1702638;82;25158;-83
2022/06/20 02:17:05;;;;;;;;;;;;;;;21.63;53.63;97595.97;1701596;83;20230;-87
2022/06/20 02:19:33;;;;;;;;;;;;;;;21.64;54.02;97582.98;1698643;83;24521;-87
2022/06/20 02:22:01;;;;;;;;;;;;;;;21.69;54.32;97580.53;1701488;82;22007;-86
2022/06/20 02:24:29;;;;;;;;;;;;;;;21.57;54.49;97574.12;1701935;82;26197;-86
2022/06/20 02:26:56;;;;;;;;;;;;;;;21.47;54.76;97569.67;1700699;82;24389;-85
2022/06/20 02:29:24;;;;;;;;;;;;;;;21.44;55.12;97556.77;1702103;82;20726;-82
2022/06/20 02:31:58;;;;;;;;;;;;;;;21.49;55.52;97555.13;1698103;83;25280;-82
2022/06/20 02:34:26;;;;;;;;;;;;;;;21.56;55.93;97555.16;1703508;82;22009;-86
2022/06/20 02:36:56;;;;;;;;;;;;;;;21.57;56.31;97568.80;1701460;82;25935;-84
2022/06/20 02:39:24;;;;;;;;;;;;;;;21.50;56.61;97578.08;1700815;82;25170;-84
2022/06/20 02:41:52;;;;;;;;;;;;;;;21.33;57.01;97578.61;1703693;82;20179;-83
2022/06/20 02:44:19;;;;;;;;;;;;;;;21.22;57.41;97578.11;1701219;83;24513;-84
2022/06/20 02:46:47;;;;;;;;;;;;;;;21.13;57.88;97576.59;1700906;83;22679;-86
2022/06/20 02:49:15;;;;;;;;;;;;;;;21.16;58.36;97574.92;1701855;84;26083;-86
2022/06/20 02:51:43;;;;;;;;;;;;;;;21.26;58.83;97578.56;1703049;82;24605;-83
2022/06/20 02:54:11;;;;;;;;;;;;;;;21.31;59.35;97574.80;1703800;82;20749;-84
2022/06/20 02:56:44;;;;;;;;;;;;;;;21.33;59.75;97575.41;1673372;84;21944;-82
2022/06/20 02:59:16;;;;;;;;;;;;;;;21.34;60.05;97582.89;1704292;82;22663;-84
2022/06/20 03:01:46;;;;;;;;;;;;;;;21.30;60.38;97586.46;1700948;84;26058;-84
2022/06/20 03:04:12;;;;;;;;;;;;;;;21.25;60.67;97585.72;1702654;82;24612;-87
2022/06/20 03:06:42;;;;;;;;;;;;;;;21.23;60.99;97585.08;1701957;82;20508;-87
2022/06/20 03:09:10;;;;;;;;;;;;;;;21.20;61.29;97580.16;1703923;82;24551;-87
2022/06/20 03:11:37;;;;;;;;;;;;;;;21.14;61.56;97576.09;1702364;82;22114;-83
2022/06/20 03:14:05;;;;;;;;;;;;;;;21.10;61.90;97569.02;1703762;83;26048;-84
2022/06/20 03:16:32;;;;;;;;;;;;;;;21.04;62.22;97568.97;1702385;84;25369;-84
2022/06/20 03:18:59;;;;;;;;;;;;;;;20.99;62.69;97568.73;1702575;83;20163;-87
2022/06/20 03:21:27;;;;;;;;;;;;;;;20.95;63.17;97559.50;1702163;82;24683;-88
2022/06/20 03:23:53;;;;;;;;;;;;;;;20.92;63.62;97562.53;1702109;84;22137;-85
2022/06/20 03:26:21;;;;;;;;;;;;;;;20.84;64.07;97562.15;1700788;84;20895;-83
2022/06/20 03:28:46;;;;;;;;;;;;;;;20.80;64.43;97568.88;1702363;82;25119;-84
2022/06/20 03:31:13;;;;;;;;;;;;;;;20.77;64.87;97563.95;1705796;83;20350;-84
2022/06/20 03:33:39;;;;;;;;;;;;;;;20.81;65.38;97567.36;1702560;83;20274;-83
2022/06/20 03:36:06;;;;;;;;;;;;;;;20.88;66.06;97564.77;1702919;83;21965;-83
2022/06/20 03:38:33;;;;;;;;;;;;;;;20.99;66.71;97566.06;1701728;82;26086;-83
2022/06/20 03:40:59;;;;;;;;;;;;;;;21.09;67.21;97565.21;1702788;83;24639;-82
2022/06/20 03:43:26;;;;;;;;;;;;;;;21.22;67.61;97576.78;1701885;82;20786;-85
2022/06/20 03:45:59;;;;;;;;;;;;;;;21.34;67.98;97579.72;1701112;83;24548;-84
2022/06/20 03:48:40;;;;;;;;;;;;;;;21.46;68.25;97587.98;1702013;82;22935;-85
2022/06/20 03:51:11;;;;;;;;;;;;;;;21.59;68.77;97594.73;1715300;82;25994;-82
2022/06/20 03:53:39;;;;;;;;;;;;;;;21.70;69.35;97595.00;1710643;82;24498;-82
2022/06/20 03:56:06;;;;;;;;;;;;;;;21.70;69.69;97600.83;1706017;82;20484;-82
2022/06/20 03:58:37;;;;;;;;;;;;;;;21.67;70.09;97598.04;1711655;82;24605;-83
2022/06/20 04:01:05;;;;;;;;;;;;;;;21.71;70.62;97610.47;1694134;83;22556;-82
2022/06/20 04:03:44;;;;;;;;;;;;;;;21.91;71.26;97611.88;1692398;82;26658;-83
2022/06/20 04:06:29;;;;;;;;;;;;;;;22.25;71.80;97604.36;1695826;82;25101;-83
2022/06/20 04:11:49;;;;;;;;;;;;;;;22.88;72.39;97603.86;1695216;82;24698;-83
2022/06/20 04:14:23;;;;;;;;;;;;;;;23.14;72.51;97604.36;1685109;82;22094;-84
2022/06/20 04:16:54;;;;;;;;;;;;;;;23.34;72.38;97606.51;1713194;82;26762;-83
2022/06/20 04:19:25;;;;;;;;;;;;;;;23.49;72.11;97604.14;1696601;82;24465;-83
2022/06/20 04:21:58;;;;;;;;;;;;;;;23.62;71.87;97610.25;1703407;82;20172;-84
2022/06/20 04:24:26;;;;;;;;;;;;;;;23.75;71.56;97602.22;1702609;82;24504;-84
2022/06/20 04:26:54;;;;;;;;;;;;;;;23.87;71.20;97604.23;1702844;83;22615;-83
2022/06/20 04:29:22;;;;;;;;;;;;;;;23.99;71.00;97596.69;1704509;82;26031;-84
2022/06/20 04:31:52;;;;;;;;;;;;;;;24.11;70.77;97597.63;1700124;83;24446;-88
2022/06/20 04:34:23;;;;;;;;;;;;;;;24.22;70.48;97596.17;1699451;82;20215;-88
2022/06/20 04:36:52;;;;;;;;;;;;;;;24.28;70.03;97599.84;1694115;82;25927;-89
2022/06/20 04:39:20;;;;;;;;;;;;;;;24.31;69.82;97605.61;1702230;82;22069;-84
2022/06/20 04:42:03;;;;;;;;;;;;;;;24.36;69.85;97615.66;1703901;82;26191;-84
2022/06/20 04:44:32;;;;;;;;;;;;;;;24.38;69.94;97614.94;1701186;82;24447;-84
2022/06/20 04:47:06;;;;;;;;;;;;;;;24.40;70.06;97612.33;1702690;82;20327;-85
2022/06/20 04:49:33;;;;;;;;;;;;;;;24.43;70.16;97607.91;1701904;83;24470;-85
2022/06/20 04:52:01;;;;;;;;;;;;;;;24.49;70.21;97606.23;1700299;83;22079;-84
2022/06/20 04:54:29;;;;;;;;;;;;;;;24.53;69.91;97602.08;1701956;84;26077;-84
2022/06/20 04:56:56;;;;;;;;;;;;;;;24.50;69.68;97603.31;1702716;82;24629;-84
2022/06/20 04:59:24;;;;;;;;;;;;;;;24.48;69.27;97604.07;1700887;82;20486;-85
2022/06/20 05:01:50;;;;;;;;;;;;;;;24.47;68.83;97605.09;1703155;83;24682;-85
2022/06/20 05:04:24;;;;;;;;;;;;;;;24.49;68.21;97606.23;1701151;84;21888;-85
2022/06/20 05:06:50;;;;;;;;;;;;;;;24.44;67.61;97593.47;1714978;81;25988;-84
2022/06/20 05:09:18;;;;;;;;;;;;;;;24.48;67.12;97592.55;1724789;81;24424;-85
2022/06/20 05:11:51;;;;;;;;;;;;;;;24.44;66.32;97598.83;1721883;82;20206;-84
2022/06/20 05:14:20;;;;;;;;;;;;;;;24.47;65.91;97603.76;1723321;81;24511;-84
2022/06/20 05:16:48;;;;;;;;;;;;;;;24.47;65.52;97606.44;1724996;81;22104;-85
2022/06/20 05:19:22;;;;;;;;;;;;;;;24.46;65.16;97602.11;1717441;82;26042;-85
2022/06/20 05:21:50;;;;;;;;;;;;;;;24.45;64.77;97607.16;1673008;83;24471;-89
2022/06/20 05:24:18;;;;;;;;;;;;;;;24.47;64.29;97607.77;1676513;83;20535;-86
2022/06/20 05:26:51;;;;;;;;;;;;;;;24.52;64.21;97613.81;1703716;83;25189;-86
2022/06/20 05:29:20;;;;;;;;;;;;;;;24.56;64.11;97617.69;1706811;82;21970;-86
2022/06/20 05:31:49;;;;;;;;;;;;;;;24.62;64.24;97613.33;1703799;83;26056;-86
2022/06/20 05:34:35;;;;;;;;;;;;;;;24.69;64.34;97614.94;1703612;83;24622;-86
2022/06/20 05:37:03;;;;;;;;;;;;;;;24.76;64.22;97616.23;1706366;81;20135;-85
2022/06/20 05:39:31;;;;;;;;;;;;;;;24.83;63.93;97618.33;1705056;82;24590;-85
2022/06/20 05:41:58;;;;;;;;;;;;;;;24.90;63.63;97617.80;1706557;83;22763;-86
2022/06/20 05:44:24;;;;;;;;;;;;;;;24.96;63.34;97616.41;1704090;82;26147;-86
2022/06/20 05:46:58;;;;;;;;;;;;;;;25.02;63.21;97618.73;1707420;82;20928;-85
2022/06/20 05:49:26;;;;;;;;;;;;;;;24.98;63.51;97612.19;1707238;83;20245;-84
2022/06/20 05:51:53;;;;;;;;;;;;;;;24.97;63.93;97614.56;1703009;84;24578;-89
2022/06/20 05:54:23;;;;;;;;;;;;;;;25.02;64.38;97609.37;1708785;82;22020;-89
2022/06/20 05:56:51;;;;;;;;;;;;;;;25.05;64.91;97616.13;1704913;83;26008;-84
2022/06/20 05:59:19;;;;;;;;;;;;;;;25.00;65.46;97622.97;1706173;83;24623;-84
2022/06/20 06:01:45;;;;;;;;;;;;;;;24.99;65.85;97610.61;1648060;84;20296;-84
2022/06/20 06:04:22;;;;;;;;;;;;;;;25.05;66.44;97618.29;1704358;83;21117;-84
2022/06/20 06:06:49;;;;;;;;;;;;;;;25.16;67.03;97620.77;1702201;83;22047;-84
2022/06/20 06:09:17;;;;;;;;;;;;;;;25.23;67.16;97612.99;1708245;81;26166;-84
2022/06/20 06:11:45;;;;;;;;;;;;;;;25.30;67.38;97615.62;1703934;82;24395;-84
2022/06/20 06:14:15;;;;;;;;;;;;;;;25.33;67.41;97609.28;1704891;83;20260;-84
2022/06/20 06:16:53;;;;;;;;;;;;;;;25.33;67.31;97603.11;1729587;82;24742;-84
2022/06/20 06:19:42;;;;;;;;;;;;;;;25.26;67.08;97593.79;1732940;83;22008;-85
2022/06/20 06:22:22;;;;;;;;;;;;;;;25.22;67.05;97596.61;1732955;82;25961;-85
2022/06/20 06:24:49;;;;;;;;;;;;;;;25.21;67.40;97595.48;1733156;82;24580;-85
2022/06/20 06:27:20;;;;;;;;;;;;;;;25.28;67.74;97598.94;1732514;81;20217;-85
2022/06/20 06:29:47;;;;;;;;;;;;;;;25.39;68.05;97599.55;1731699;81;24552;-85
2022/06/20 06:32:24;;;;;;;;;;;;;;;25.49;68.23;97594.49;1731796;82;22080;-85
2022/06/20 06:34:52;;;;;;;;;;;;;;;25.57;68.48;97592.91;1730524;81;26786;-85
2022/06/20 06:37:22;;;;;;;;;;;;;;;25.63;68.48;97584.50;1732249;81;24428;-85
2022/06/20 06:39:50;;;;;;;;;;;;;;;25.66;68.58;97578.16;1733326;81;20196;-85
2022/06/20 06:42:17;;;;;;;;;;;;;;;25.68;68.50;97571.24;1690840;83;24780;-85
2022/06/20 06:44:44;;;;;;;;;;;;;;;25.72;68.72;97564.39;1700895;83;21947;-85
2022/06/20 06:47:17;;;;;;;;;;;;;;;25.70;68.22;97559.76;1700805;83;25995;-85
2022/06/20 06:49:45;;;;;;;;;;;;;;;25.66;67.24;97574.14;1734030;82;24796;-85
2022/06/20 06:52:16;;;;;;;;;;;;;;;25.67;65.67;97570.42;1734001;82;20214;-85
2022/06/20 06:54:46;;;;;;;;;;;;;;;25.68;64.62;97561.34;1733106;82;24646;-85
2022/06/20 06:57:14;;;;;;;;;;;;;;;25.70;64.26;97563.78;1734423;81;21937;-89
2022/06/20 06:59:45;;;;;;;;;;;;;;;25.64;63.49;97552.64;1731156;82;26641;-89
2022/06/20 07:02:18;;;;;;;;;;;;;;;25.67;63.30;97552.18;1736992;82;25104;-89
2022/06/20 07:04:46;;;;;;;;;;;;;;;25.73;63.21;97551.28;1734568;82;20274;-84
2022/06/20 07:07:14;;;;;;;;;;;;;;;25.77;62.85;97541.22;1729254;81;24559;-85
2022/06/20 07:09:42;;;;;;;;;;;;;;;25.82;62.16;97540.02;1730333;83;21761;-85
2022/06/20 07:12:09;;;;;;;;;;;;;;;25.87;61.63;97537.18;1730291;81;26053;-85
2022/06/20 07:14:37;;;;;;;;;;;;;;;25.96;61.25;97533.16;1728539;83;24605;-85
2022/06/20 07:17:11;;;;;;;;;;;;;;;26.03;60.63;97532.02;1729636;81;20225;-85
2022/06/20 07:19:39;;;;;;;;;;;;;;;26.11;60.26;97533.05;1730528;81;24608;-85
2022/06/20 07:22:05;;;;;;;;;;;;;;;26.18;59.93;97537.78;1692943;83;22692;-85
2022/06/20 07:24:33;;;;;;;;;;;;;;;26.24;59.67;97524.83;1701197;83;26105;-85
2022/06/20 07:27:16;;;;;;;;;;;;;;;26.35;59.53;97525.91;1711247;83;24399;-85
2022/06/20 07:29:45;;;;;;;;;;;;;;;26.47;59.18;97532.65;1675123;83;20210;-85
2022/06/20 07:32:13;;;;;;;;;;;;;;;26.57;59.07;97538.27;1706801;83;24562;-89
2022/06/20 07:34:41;;;;;;;;;;;;;;;26.64;58.23;97530.41;1706073;83;21690;-85
2022/06/20 07:37:12;;;;;;;;;;;;;;;26.70;57.61;97529.20;1707612;83;26132;-85
2022/06/20 07:39:45;;;;;;;;;;;;;;;26.78;57.56;97528.35;1716359;83;24446;-85
2022/06/20 07:42:16;;;;;;;;;;;;;;;26.90;57.56;97518.44;1710294;83;20289;-85
2022/06/20 07:44:47;;;;;;;;;;;;;;;26.96;56.88;97512.14;1709633;83;25150;-85
2022/06/20 07:47:30;;;;;;;;;;;;;;;27.04;56.34;97513.67;1713331;83;21989;-85
2022/06/20 07:49:58;;;;;;;;;;;;;;;27.08;55.89;97504.09;1705651;83;26813;-85
2022/06/20 07:52:33;;;;;;;;;;;;;;;27.14;55.64;97504.49;1716825;82;24492;-84
2022/06/20 07:55:00;;;;;;;;;;;;;;;27.14;55.09;97500.98;1715292;83;20221;-89
2022/06/20 07:57:28;;;;;;;;;;;;;;;27.06;54.92;97485.51;1710474;83;24710;-89
2022/06/20 07:59:56;;;;;;;;;;;;;;;27.24;54.95;97485.91;1719772;83;21464;-89
2022/06/20 08:02:40;;;;;;;;;;;;;;;27.31;54.45;97485.78;1715054;83;25932;-84
2022/06/20 08:05:06;;;;;;;;;;;;;;;27.38;54.36;97483.27;1722781;83;24667;-85
2022/06/20 08:07:39;;;;;;;;;;;;;;;27.38;54.07;97466.33;1712130;83;20246;-85
2022/06/20 08:10:10;;;;;;;;;;;;;;;27.43;53.59;97457.84;1714589;83;25145;-85
2022/06/20 08:12:40;;;;;;;;;;;;;;;27.48;53.12;97449.88;1709065;83;22059;-85
2022/06/20 08:15:20;;;;;;;1.85;1.20;;;;;;;27.58;53.03;97445.25;1708628;83;26154;-85
2022/06/20 08:17:46;;;;;;;1.70;1.20;;;;;;;27.72;52.49;97437.70;1702618;83;28084;-89
2022/06/20 08:20:13;;;;;;;3.83;1.55;;;;;;;27.82;52.42;97427.95;1707847;83;28247;-89
2022/06/20 08:22:57;;;;;;;3.65;1.20;;;;;;;27.93;52.29;97423.57;1713140;83;28005;-89
2022/06/20 08:25:27;;;;;;;2.83;1.20;;;;;;;28.07;52.27;97427.60;1700141;83;28174;-89
2022/06/20 08:28:15;;;;;;;3.00;1.45;;;;;;;28.16;52.17;97426.69;1699736;83;28096;-89
2022/06/20 08:30:50;;;;;;;2.30;1.20;;;;;;;28.26;52.26;97424.16;1710858;82;28151;-89
2022/06/20 08:33:26;;;;;;;2.77;0.90;;;;;;;28.35;52.12;97425.94;1702433;83;28212;-85
2022/06/20 08:36:05;;;;;;;2.35;1.20;;;;;;;28.37;51.79;97421.14;1706297;83;28151;-89
2022/06/20 08:38:40;;;;;;;2.55;1.20;;;;;;;28.42;51.21;97411.80;1704178;83;28146;-85
2022/06/20 08:41:25;;;;;;;5.60;1.32;;;;;;;28.45;50.93;97408.59;1712661;83;28114;-85
2022/06/20 08:43:59;;;;;;;1.70;1.05;;;;;;;28.50;50.63;97416.22;1714586;83;28117;-85
2022/06/20 08:46:35;;;;;;;2.72;1.42;;;;;;;28.54;50.16;97409.80;1711487;83;28087;-84
2022/06/20 08:49:26;;;;;;;2.98;1.25;;;;;;;28.57;49.73;97403.42;1713413;82;28076;-84
2022/06/20 08:52:08;;;;;;;1.75;1.30;;;;;;;28.71;49.54;97403.34;1679347;84;28165;-85
2022/06/20 08:54:49;;;;;;;2.60;1.00;;;;;;;28.84;49.46;97390.09;1695512;83;28086;-85
2022/06/20 08:57:17;;;;;;;;;;;;;;;28.87;48.87;97382.84;1695417;84;28071;-85
2022/06/20 08:59:44;;;;;;;;;;;;;;;28.94;48.70;97379.98;1701015;83;20179;-86
2022/06/20 09:02:38;;;;;;;3.77;1.30;;;;;;;28.99;48.32;97374.66;1705558;81;24687;-86
2022/06/20 09:05:17;;;;;;;1.95;1.20;;;;;;;29.04;48.09;97370.67;1706561;81;28004;-86
2022/06/20 09:08:21;;;;;;;1.95;1.10;;;;;;;29.10;47.98;97368.33;1693427;83;28097;-89
2022/06/20 09:11:16;;;;;;;1.20;1.07;;;;;;;29.18;47.79;97363.86;1677548;83;28177;-89
2022/06/20 09:13:58;;;;;;;1.72;0.93;;;;;;;29.25;47.28;97349.64;1694681;82;28125;-85
2022/06/20 09:16:47;;;;;;;3.37;1.15;;;;;;;29.27;46.72;97350.20;1680618;83;28257;-84
2022/06/20 09:19:29;;;;;;;2.00;1.40;;;;;;;29.44;46.97;97345.58;1688635;83;28141;-84
2022/06/20 09:22:25;;;;;;;1.35;0.98;;;;;;;29.57;47.14;97347.03;1682700;83;28487;-84
2022/06/20 09:25:20;;;;;;;1.82;0.98;;;;;;;29.70;46.89;97349.87;1675092;84;28140;-84
2022/06/20 09:27:50;;;;;;;4.42;1.25;;;;;;;29.80;46.28;97344.03;1697151;83;28033;-84
2022/06/20 09:30:35;;;;;;;1.27;1.17;;;;;;;29.89;45.64;97335.73;1697707;83;28086;-89
2022/06/20 09:33:08;;;;;;;1.77;1.20;;;;;;;29.92;44.90;97329.88;1677082;84;28076;-89
2022/06/20 09:36:13;;;;;;;2.98;1.02;;;;;;;29.97;44.46;97316.95;1698275;84;28103;-89
2022/06/20 09:38:56;;;;;;;;;;;;;;;29.99;44.11;97313.48;1702256;82;28024;-86
2022/06/20 09:41:36;;;;;;;2.27;1.10;;;;;;;30.04;44.13;97305.42;1675875;84;20256;-86
2022/06/20 09:44:24;;;;;;;2.42;1.20;;;;;;;30.12;44.33;97300.88;1691419;84;28071;-86
2022/06/20 09:47:14;;;;;;;1.67;1.35;;;;;;;30.21;44.74;97297.98;1685938;84;28146;-86
2022/06/20 09:49:50;;;;;;;3.45;1.35;;;;;;;30.25;44.42;97305.83;1677422;84;28161;-84
2022/06/20 09:52:53;;;;;;;1.70;1.20;;;;;;;30.35;43.91;97312.64;1692978;83;28066;-89
2022/06/20 09:55:46;;;;;;;2.98;1.22;;;;;;;30.39;43.52;97305.36;1693790;82;28089;-84
2022/06/20 09:58:42;;;;;;;2.92;1.22;;;;;;;30.41;43.14;97303.22;1692099;84;28566;-86
2022/06/20 10:01:25;;;;;;;3.22;1.35;;;;;;;30.47;43.00;97315.69;1693659;83;28015;-85
2022/06/20 10:04:06;;;;;;;2.45;1.20;;;;;;;30.54;42.80;97309.55;1696534;82;28071;-86
2022/06/20 10:07:04;;;;;;;5.15;1.30;;;;;;;30.62;42.67;97300.94;1696511;82;28106;-86
2022/06/20 10:09:33;;;;;;;3.35;1.20;;;;;;;30.68;42.57;97305.30;1695456;82;28179;-86
2022/06/20 10:12:03;;;;;;;2.35;1.50;;;;;;;30.73;42.69;97309.36;1695583;84;28196;-86
2022/06/20 10:14:54;;;;;;;2.47;1.30;;;;;;;30.80;42.69;97315.35;1695612;83;28121;-86
2022/06/20 10:17:27;;;;;;;2.17;1.17;;;;;;;30.85;42.63;97313.20;1694673;82;28147;-89
2022/06/20 10:20:30;;;;;;;1.67;1.20;;;;;;;30.81;42.28;97322.39;1694538;82;28066;-85
2022/06/20 10:23:16;;;;;;;2.75;1.57;;;;;;;30.94;42.35;97321.89;1692383;82;28083;-83
2022/06/20 10:26:00;;;;;;;2.15;1.57;;;;;;;31.14;42.28;97323.36;1693063;84;28508;-84
2022/06/20 10:28:30;;;;;;;2.70;1.57;;;;;;;31.21;42.17;97333.91;1674375;82;28030;-85
2022/06/20 10:31:16;;;;;;;2.62;1.30;;;;;;;31.15;41.93;97338.48;1696397;83;28092;-86
2022/06/20 10:34:06;;;;;;;4.92;1.35;;;;;;;31.14;41.99;97350.94;1696625;82;28076;-86
2022/06/20 10:36:54;;;;;;;8.10;1.80;;;;;;;31.28;42.01;97364.22;1694141;82;28063;-84
2022/06/20 10:39:42;;;;;;;3.25;1.57;;;;;;;31.44;42.18;97367.78;1696593;82;28200;-85
2022/06/20 10:42:12;;;;;;;3.33;1.47;;;;;;;31.55;41.90;97343.20;1696109;82;28158;-85
2022/06/20 10:45:00;;;;;;;3.25;1.80;;;;;;;31.66;42.01;97340.53;1663911;84;28127;-89
2022/06/20 10:47:30;;;;;;;2.12;1.62;;;;;;;31.83;42.32;97340.56;1692993;84;28061;-89
2022/06/20 10:50:23;;;;;;;3.15;1.42;;;;;;;31.97;42.25;97344.34;1694870;82;28049;-88
2022/06/20 10:53:04;;;;;;;3.58;1.57;;;;;;;32.07;42.22;97340.03;1695807;84;28041;-88
2022/06/20 10:55:46;;;;;;;2.05;1.27;;;;;;;32.13;42.37;97344.40;1695218;82;28115;-83
2022/06/20 10:58:38;;;;;;;6.75;1.60;;;;;;;32.13;42.64;97339.77;1678421;84;28116;-85
2022/06/20 11:01:26;;;;;;;3.77;1.77;;;;;;;32.22;42.74;97350.34;1678606;83;28110;-85
2022/06/20 11:04:14;;;;;;;4.03;1.57;;;;;;;32.40;43.09;97351.69;1678646;84;28080;-89
2022/06/20 11:06:46;;;;;;;2.37;1.42;;;;;;;32.50;43.21;97351.67;1678112;85;28123;-88
2022/06/20 11:09:22;;;;;;;4.45;1.98;;;;;;;32.54;42.93;97362.22;1718434;82;28135;-84
2022/06/20 11:11:54;;;;;;;2.27;1.52;;;;;;;32.53;42.84;97360.59;1721709;81;28031;-84
2022/06/20 11:14:27;;;;;;;4.15;1.90;;;;;;;32.61;43.35;97363.30;1707980;81;28149;-84
2022/06/20 11:17:06;;;;;;;2.37;1.85;;;;;;;32.66;43.03;97367.38;1666899;85;28067;-84
2022/06/20 11:19:42;;;;;;;5.80;1.92;;;;;;;32.67;42.86;97368.47;1708043;82;28128;-84
2022/06/20 11:22:27;;;;;;;3.22;2.10;;;;;;;32.72;42.84;97376.58;1677796;84;28134;-84
2022/06/20 11:25:03;;;;;;;5.80;2.83;;;;;;;32.76;42.79;97387.13;1678456;84;28102;-88
2022/06/20 11:27:38;;;;;;;4.80;1.87;;;;;;;32.76;42.85;97403.94;1721060;81;28202;-89
2022/06/20 11:30:23;;;;;;;4.28;2.15;;;;;;;32.72;42.81;97430.78;1701904;81;28488;-89
2022/06/20 11:33:07;;;;;;;4.97;2.30;;;;;;;32.64;42.86;97452.97;1676406;84;28094;-84
2022/06/20 11:35:49;;;;;;;6.53;2.52;;;;;;;32.51;42.87;97464.38;1708567;82;28130;-85
2022/06/20 11:38:48;;;;;;;5.12;2.80;;;;;;;32.27;42.53;97478.97;1679451;84;28153;-89
2022/06/20 11:41:24;;;;;;;8.40;2.80;;;;;;;32.02;42.50;97496.51;1677351;84;28161;-89
2022/06/20 11:44:11;;;;;;;5.83;2.35;;;;;;;31.65;42.13;97496.64;1659766;83;28108;-84
2022/06/20 11:46:57;;;;;;;3.65;2.42;;;;;;;31.36;42.08;97498.11;1699844;83;28179;-85
2022/06/20 11:49:26;;;;;;;3.83;2.37;;;;;;;31.11;42.19;97497.42;1702032;83;28094;-84
2022/06/20 11:52:20;;;;;;;4.10;2.42;;;;;;;30.92;42.38;97517.28;1708179;83;28065;-85
2022/06/20 11:55:10;;;;;;;4.35;1.70;;;;;;;30.69;42.59;97534.66;1714761;81;28388;-85
2022/06/20 11:57:52;;;;;;;6.80;1.95;;;;;;;30.33;41.82;97539.44;1715931;81;28069;-85
2022/06/20 12:00:22;;;;;;;8.43;1.37;;;;;;;30.04;41.55;97529.94;1676248;84;28054;-85
2022/06/20 12:03:10;;;;;;;5.62;1.25;;;;;;;29.82;41.41;97538.02;1687496;83;28109;-85
2022/06/20 12:05:45;;;;;;;3.62;1.27;;;;;;;29.55;40.93;97553.31;1684619;83;28102;-83
2022/06/20 12:08:33;;;;;;;2.70;0.95;;;;;;;29.41;40.88;97536.67;1706002;83;28193;-83
2022/06/20 12:11:03;;;;;;;4.35;0.95;;;;;;;29.34;40.95;97538.22;1707114;82;28033;-84
2022/06/20 12:13:50;;;;;;;2.87;0.75;;;;;;;29.26;41.02;97564.20;1709319;83;28088;-84
2022/06/20 12:16:22;;;;;;;1.85;0.72;;;;;;;29.19;41.03;97563.55;1718885;82;28004;-88
2022/06/20 12:24:43;;;;;;;3.87;1.00;;;;;;;29.25;41.66;97547.73;1695875;82;28108;-88
2022/06/20 12:27:12;;;;;;;2.35;0.90;;;;;;;29.17;41.82;97549.52;1697014;84;28117;-89
2022/06/20 12:29:39;;;;;;;3.42;0.78;;;;;;;29.06;41.94;97553.95;1697094;84;28100;-84
2022/06/20 12:32:09;;;;;;;2.40;0.90;;;;;;;29.04;42.18;97562.80;1697030;82;28014;-88
2022/06/20 12:34:55;;;;;;;4.30;1.00;;;;;;;29.02;42.29;97556.83;1694514;84;28079;-88
2022/06/20 12:37:34;;;;;;;2.35;0.80;;;;;;;29.09;42.58;97555.31;1695199;82;28121;-83
2022/06/20 12:40:10;;;;;;;3.27;1.10;;;;;;;29.10;42.84;97550.22;1695143;84;28122;-84
2022/06/20 12:42:48;;;;;;;4.42;1.07;;;;;;;28.94;42.97;97557.78;1699003;83;28081;-84
2022/06/20 12:45:46;;;;;;;4.60;0.98;;;;;;;28.87;43.18;97559.81;1695795;82;28070;-84
2022/06/20 12:48:19;;;;;;;2.47;1.05;;;;;;;28.83;43.47;97558.67;1734785;82;28052;-84
2022/06/20 12:50:55;;;;;;;3.33;1.27;;;;;;;28.74;43.73;97556.94;1734105;82;28393;-85
2022/06/20 12:53:25;;;;;;;2.90;1.20;;;;;;;28.54;43.76;97555.19;1666872;83;28141;-85
2022/06/20 12:56:00;;;;;;;4.53;1.20;;;;;;;28.27;43.82;97548.25;1691416;83;28131;-84
2022/06/20 12:58:48;;;;;;;4.10;1.20;;;;;;;28.08;44.07;97550.83;1691447;84;28083;-89
2022/06/20 13:01:18;;;;;;;3.52;1.50;;;;;;;27.95;44.42;97566.71;1698908;83;28062;-84